createdAt,value
2019-03-09T00:01:04.094Z,62.00
2019-03-09T00:03:32.820Z,62.00
2019-03-09T00:06:01.640Z,62.00
2019-03-09T00:08:30.523Z,62.00
2019-03-09T00:10:59.313Z,61.60
2019-03-09T00:13:28.040Z,61.70
2019-03-09T00:15:56.863Z,61.60
2019-03-09T00:18:25.701Z,61.40
2019-03-09T00:20:54.497Z,62.10
2019-03-09T00:23:41.892Z,61.70
2019-03-09T00:26:32.606Z,61.60
2019-03-09T00:29:08.807Z,61.70
2019-03-09T00:31:45.302Z,61.60
2019-03-09T00:34:14.164Z,61.80
2019-03-09T00:36:42.972Z,61.70
2019-03-09T00:39:12.132Z,61.70
2019-03-09T00:41:40.997Z,61.80
2019-03-09T00:44:09.796Z,61.60
2019-03-09T00:46:38.656Z,61.50
2019-03-09T00:49:07.463Z,61.20
2019-03-09T00:51:36.286Z,61.40
2019-03-09T00:54:05.119Z,61.00
2019-03-09T00:56:33.894Z,61.20
2019-03-09T00:59:02.623Z,61.20
2019-03-09T01:01:31.487Z,60.90
2019-03-09T01:04:00.352Z,61.00
2019-03-09T01:06:29.176Z,61.10
2019-03-09T01:08:57.908Z,61.00
2019-03-09T01:11:26.694Z,60.90
2019-03-09T01:13:55.559Z,61.70
2019-03-09T01:16:24.409Z,60.90
2019-03-09T01:18:53.126Z,60.90
2019-03-09T01:21:21.867Z,60.90
2019-03-09T01:23:50.701Z,60.80
2019-03-09T01:26:19.587Z,60.70
2019-03-09T01:28:48.359Z,60.70
2019-03-09T01:31:17.184Z,61.00
2019-03-09T01:33:46.035Z,60.80
2019-03-09T01:36:14.858Z,60.80
2019-03-09T01:38:43.616Z,60.60
2019-03-09T01:41:12.458Z,60.80
2019-03-09T01:43:41.178Z,60.90
2019-03-09T01:46:09.943Z,61.30
2019-03-09T01:48:38.764Z,61.00
2019-03-09T01:51:07.524Z,61.00
2019-03-09T01:53:37.083Z,60.80
2019-03-09T01:56:05.882Z,61.00
2019-03-09T01:58:34.619Z,61.50
2019-03-09T02:01:03.440Z,61.50
2019-03-09T02:03:32.246Z,61.60
2019-03-09T02:06:01.073Z,61.80
2019-03-09T02:08:29.871Z,61.70
2019-03-09T02:10:58.616Z,62.10
2019-03-09T02:13:27.520Z,62.10
2019-03-09T02:15:56.244Z,62.20
2019-03-09T02:18:24.995Z,62.00
2019-03-09T02:20:53.808Z,61.90
2019-03-09T02:23:22.610Z,62.10
2019-03-09T02:25:51.354Z,62.20
2019-03-09T02:28:20.180Z,62.20
2019-03-09T02:30:48.933Z,62.10
2019-03-09T02:33:17.747Z,62.10
2019-03-09T02:35:46.542Z,62.10
2019-03-09T02:38:23.199Z,62.10
2019-03-09T02:40:52.050Z,62.40
2019-03-09T02:43:20.793Z,62.20
2019-03-09T02:45:49.597Z,62.30
2019-03-09T02:48:18.365Z,62.20
2019-03-09T02:50:56.191Z,62.20
2019-03-09T02:53:28.013Z,62.10
2019-03-09T02:55:56.840Z,62.20
2019-03-09T02:58:25.647Z,61.80
2019-03-09T03:01:12.556Z,61.70
2019-03-09T03:03:41.361Z,61.80
2019-03-09T03:06:10.215Z,62.00
2019-03-09T03:08:39.014Z,62.30
2019-03-09T03:11:07.768Z,62.90
2019-03-09T03:13:36.603Z,63.00
2019-03-09T03:16:05.367Z,63.50
2019-03-09T03:18:34.207Z,63.50
2019-03-09T03:21:02.976Z,64.00
2019-03-09T03:23:31.847Z,64.30
2019-03-09T03:26:00.692Z,64.30
2019-03-09T03:28:29.506Z,64.40
2019-03-09T03:30:58.294Z,64.90
2019-03-09T03:33:27.125Z,65.00
2019-03-09T03:35:55.917Z,65.00
2019-03-09T03:38:24.686Z,65.00
2019-03-09T03:40:53.516Z,64.90
2019-03-09T03:43:22.349Z,65.00
2019-03-09T03:45:51.175Z,65.10
2019-03-09T03:48:20.013Z,65.30
2019-03-09T03:50:48.846Z,65.60
2019-03-09T03:53:17.662Z,66.20
2019-03-09T03:55:46.529Z,66.70
2019-03-09T03:58:15.356Z,67.80
2019-03-09T04:00:44.163Z,68.30
2019-03-09T04:03:12.961Z,69.10
2019-03-09T04:05:41.792Z,69.00
2019-03-09T04:08:10.640Z,69.70
2019-03-09T04:10:39.450Z,69.30
2019-03-09T04:13:08.256Z,69.30
2019-03-09T04:15:37.084Z,69.40
2019-03-09T04:18:05.822Z,69.30
2019-03-09T04:20:34.661Z,69.20
2019-03-09T04:23:03.501Z,69.10
2019-03-09T04:25:32.338Z,69.00
2019-03-09T04:28:01.149Z,68.80
2019-03-09T04:30:29.994Z,69.20
2019-03-09T04:32:58.725Z,68.90
2019-03-09T04:35:27.459Z,69.10
2019-03-09T04:37:56.220Z,68.80
2019-03-09T04:40:25.051Z,68.60
2019-03-09T04:42:53.823Z,68.40
2019-03-09T04:45:22.553Z,68.20
2019-03-09T04:47:51.308Z,68.20
2019-03-09T04:50:20.108Z,67.90
2019-03-09T04:52:48.934Z,67.90
2019-03-09T04:55:17.779Z,67.90
2019-03-09T04:57:46.508Z,67.70
2019-03-09T05:00:15.250Z,67.90
2019-03-09T05:02:43.990Z,67.80
2019-03-09T05:05:12.774Z,68.00
2019-03-09T05:08:02.681Z,68.00
2019-03-09T05:11:04.987Z,67.70
2019-03-09T05:13:40.200Z,67.60
2019-03-09T05:16:09.014Z,67.00
2019-03-09T05:18:37.786Z,67.70
2019-03-09T05:21:06.522Z,67.30
2019-03-09T05:23:35.244Z,67.50
2019-03-09T05:26:04.007Z,67.80
2019-03-09T05:28:32.759Z,68.00
2019-03-09T05:31:01.544Z,67.80
2019-03-09T05:33:30.339Z,67.50
2019-03-09T05:35:59.140Z,67.60
2019-03-09T05:38:27.970Z,67.80
2019-03-09T05:40:56.826Z,67.70
2019-03-09T05:43:25.683Z,67.70
2019-03-09T05:45:54.497Z,67.70
2019-03-09T05:48:23.249Z,67.40
2019-03-09T05:50:52.098Z,67.80
2019-03-09T05:53:23.875Z,67.70
2019-03-09T05:55:52.611Z,67.90
2019-03-09T05:58:21.447Z,68.10
2019-03-09T06:00:50.204Z,68.30
2019-03-09T06:03:19.003Z,68.30
2019-03-09T06:05:53.213Z,68.30
2019-03-09T06:08:21.962Z,68.60
2019-03-09T06:10:50.775Z,69.00
2019-03-09T06:13:19.530Z,69.10
2019-03-09T06:15:48.277Z,69.10
2019-03-09T06:18:17.055Z,69.00
2019-03-09T06:20:45.879Z,69.00
2019-03-09T06:23:14.636Z,68.50
2019-03-09T06:25:43.486Z,68.70
2019-03-09T06:28:12.302Z,68.50
2019-03-09T06:30:41.123Z,68.70
2019-03-09T06:33:27.200Z,68.10
2019-03-09T06:36:28.404Z,68.00
2019-03-09T06:39:09.003Z,67.80
2019-03-09T06:41:41.942Z,67.60
2019-03-09T06:44:10.712Z,67.00
2019-03-09T06:46:39.548Z,66.70
2019-03-09T06:49:08.371Z,66.60
2019-03-09T06:51:37.169Z,65.70
2019-03-09T06:54:05.928Z,65.10
2019-03-09T06:56:34.650Z,64.40
2019-03-09T06:59:03.469Z,64.40
2019-03-09T07:01:32.394Z,64.40
2019-03-09T07:04:01.117Z,63.90
2019-03-09T07:06:29.931Z,63.50
2019-03-09T07:08:58.711Z,63.50
2019-03-09T07:11:27.455Z,63.90
2019-03-09T07:13:56.306Z,65.80
2019-03-09T07:16:25.144Z,65.10
2019-03-09T07:18:53.879Z,66.70
2019-03-09T07:21:22.632Z,66.70
2019-03-09T07:23:51.480Z,67.90
2019-03-09T07:26:20.380Z,68.60
2019-03-09T07:28:49.202Z,70.10
2019-03-09T07:31:18.044Z,70.80
2019-03-09T07:33:46.860Z,74.40
2019-03-09T07:36:15.675Z,75.80
2019-03-09T07:38:44.459Z,77.00
2019-03-09T07:41:13.268Z,76.90
2019-03-09T07:43:42.042Z,77.70
2019-03-09T07:46:10.867Z,76.90
2019-03-09T07:48:40.946Z,75.50
2019-03-09T07:51:09.870Z,76.20
2019-03-09T07:53:38.714Z,75.40
2019-03-09T07:56:07.527Z,76.80
2019-03-09T07:58:36.271Z,76.20
2019-03-09T08:01:05.101Z,76.30
2019-03-09T08:03:33.830Z,75.90
2019-03-09T08:06:02.558Z,75.90
2019-03-09T08:08:31.316Z,75.20
2019-03-09T08:11:00.137Z,74.50
2019-03-09T08:13:28.902Z,73.30
2019-03-09T08:15:57.639Z,72.70
2019-03-09T08:18:26.458Z,72.30
2019-03-09T08:20:55.234Z,71.50
2019-03-09T08:23:23.969Z,70.90
2019-03-09T08:25:52.781Z,70.40
2019-03-09T08:28:23.678Z,70.30
2019-03-09T08:31:11.771Z,70.90
2019-03-09T08:33:44.231Z,70.60
2019-03-09T08:36:14.646Z,69.80
2019-03-09T08:38:43.241Z,69.70
2019-03-09T08:41:12.067Z,69.40
2019-03-09T08:43:40.953Z,69.90
2019-03-09T08:46:09.862Z,69.00
2019-03-09T08:48:38.615Z,68.80
2019-03-09T08:51:07.367Z,68.80
2019-03-09T08:53:36.236Z,68.90
2019-03-09T08:56:05.019Z,68.10
2019-03-09T08:58:33.812Z,68.40
2019-03-09T09:01:02.645Z,67.30
2019-03-09T09:03:31.489Z,66.90
2019-03-09T09:06:00.323Z,67.30
2019-03-09T09:08:29.148Z,66.80
2019-03-09T09:10:58.003Z,67.40
2019-03-09T09:13:26.777Z,66.20
2019-03-09T09:15:55.604Z,66.50
2019-03-09T09:18:24.414Z,66.70
2019-03-09T09:20:53.254Z,66.20
2019-03-09T09:23:22.090Z,65.90
2019-03-09T09:25:50.934Z,66.10
2019-03-09T09:28:19.709Z,65.80
2019-03-09T09:30:48.512Z,65.80
2019-03-09T09:33:17.332Z,66.10
2019-03-09T09:35:46.084Z,66.00
2019-03-09T09:38:14.843Z,66.10
2019-03-09T09:40:43.680Z,65.50
2019-03-09T09:43:12.391Z,65.80
2019-03-09T09:45:41.155Z,65.50
2019-03-09T09:48:10.021Z,64.80
2019-03-09T09:50:39.306Z,65.20
2019-03-09T09:53:08.069Z,64.90
2019-03-09T09:55:36.825Z,65.30
2019-03-09T09:58:05.651Z,65.80
2019-03-09T10:00:34.497Z,65.00
2019-03-09T10:03:03.220Z,65.10
2019-03-09T10:05:32.052Z,65.30
2019-03-09T10:08:02.099Z,64.30
2019-03-09T10:10:55.341Z,64.10
2019-03-09T10:16:29.393Z,63.50
2019-03-09T10:21:33.235Z,63.20
2019-03-09T10:24:06.333Z,62.70
2019-03-09T10:26:39.403Z,63.00
2019-03-09T10:29:09.519Z,62.60
2019-03-09T10:31:46.577Z,62.70
2019-03-09T10:34:16.597Z,63.00
2019-03-09T10:36:48.709Z,62.80
2019-03-09T10:39:47.590Z,62.90
2019-03-09T10:42:39.125Z,62.90
2019-03-09T10:45:18.882Z,62.90
2019-03-09T10:48:00.147Z,62.20
2019-03-09T10:50:30.153Z,62.50
2019-03-09T10:52:59.880Z,62.50
2019-03-09T10:55:42.817Z,63.00
2019-03-09T11:01:12.331Z,62.20
2019-03-09T11:03:42.813Z,62.50
2019-03-09T11:06:32.958Z,62.90
2019-03-09T11:09:02.906Z,62.50
2019-03-09T11:11:43.319Z,62.50
2019-03-09T11:14:15.989Z,62.50
2019-03-09T11:16:56.939Z,61.60
2019-03-09T11:19:38.043Z,62.10
2019-03-09T11:22:13.469Z,62.00
2019-03-09T11:24:44.435Z,61.50
2019-03-09T11:31:03.580Z,62.20
2019-03-09T11:33:32.607Z,61.60
2019-03-09T11:36:01.355Z,61.80
2019-03-09T11:38:30.200Z,61.40
2019-03-09T11:41:00.813Z,61.30
2019-03-09T11:43:29.762Z,61.30
2019-03-09T11:45:58.546Z,61.10
2019-03-09T11:48:27.317Z,61.40
2019-03-09T11:50:56.080Z,61.70
2019-03-09T11:53:24.831Z,61.70
2019-03-09T11:55:53.660Z,62.00
2019-03-09T11:58:22.417Z,62.00
2019-03-09T12:00:51.221Z,62.10
2019-03-09T12:03:20.051Z,62.10
2019-03-09T12:05:48.795Z,62.20
2019-03-09T12:08:17.568Z,62.40
2019-03-09T12:10:46.320Z,63.20
2019-03-09T12:13:15.058Z,62.30
2019-03-09T12:15:43.822Z,62.50
2019-03-09T12:18:12.568Z,62.20
2019-03-09T12:20:41.418Z,62.00
2019-03-09T12:23:16.961Z,61.60
2019-03-09T12:25:45.739Z,61.40
2019-03-09T12:28:14.608Z,61.70
2019-03-09T12:30:43.362Z,61.20
2019-03-09T12:33:12.222Z,60.90
2019-03-09T12:35:41.070Z,60.90
2019-03-09T12:38:09.855Z,60.40
2019-03-09T12:40:38.704Z,60.30
2019-03-09T12:43:07.535Z,59.70
2019-03-09T12:45:36.342Z,59.60
2019-03-09T12:48:05.100Z,58.80
2019-03-09T12:50:33.933Z,58.90
2019-03-09T12:53:02.721Z,59.40
2019-03-09T12:55:31.567Z,59.10
2019-03-09T12:58:00.432Z,58.50
2019-03-09T13:00:29.262Z,58.90
2019-03-09T13:02:58.056Z,58.90
2019-03-09T13:05:26.870Z,59.30
2019-03-09T13:07:55.687Z,58.90
2019-03-09T13:10:24.515Z,59.10
2019-03-09T13:12:53.364Z,59.30
2019-03-09T13:15:22.218Z,59.30
2019-03-09T13:17:50.998Z,59.60
2019-03-09T13:20:19.788Z,60.10
2019-03-09T13:22:48.639Z,60.60
2019-03-09T13:25:17.401Z,60.90
2019-03-09T13:27:46.271Z,61.20
2019-03-09T13:30:16.953Z,61.20
2019-03-09T13:32:45.861Z,61.30
2019-03-09T13:35:14.605Z,61.70
2019-03-09T13:37:43.345Z,61.80
2019-03-09T13:40:12.114Z,61.70
2019-03-09T13:42:40.848Z,62.20
2019-03-09T13:45:10.544Z,62.30
2019-03-09T13:47:39.374Z,63.20
2019-03-09T13:50:08.928Z,62.90
2019-03-09T13:52:37.668Z,63.10
2019-03-09T13:55:06.835Z,63.00
2019-03-09T13:57:35.671Z,63.10
2019-03-09T14:00:05.092Z,63.10
2019-03-09T14:02:33.908Z,63.30
2019-03-09T14:05:02.658Z,63.20
2019-03-09T14:07:31.450Z,63.10
2019-03-09T14:10:00.351Z,63.50
2019-03-09T14:12:29.152Z,63.50
2019-03-09T14:14:57.895Z,63.60
2019-03-09T14:17:26.623Z,63.70
2019-03-09T14:19:55.466Z,63.90
2019-03-09T14:22:24.275Z,63.90
2019-03-09T14:24:53.030Z,63.80
2019-03-09T14:27:21.775Z,63.60
2019-03-09T14:29:50.613Z,63.80
2019-03-09T14:32:19.500Z,63.90
2019-03-09T14:34:48.258Z,64.30
2019-03-09T14:37:17.053Z,64.10
2019-03-09T14:39:45.859Z,64.90
2019-03-09T14:42:14.681Z,64.40
2019-03-09T14:44:43.442Z,64.60
2019-03-09T14:47:12.277Z,64.50
2019-03-09T14:49:43.095Z,64.70
2019-03-09T14:52:11.889Z,64.70
2019-03-09T14:54:40.659Z,64.70
2019-03-09T14:57:09.431Z,64.60
2019-03-09T14:59:38.199Z,64.70
2019-03-09T15:02:07.007Z,65.00
2019-03-09T15:04:35.823Z,64.40
2019-03-09T15:07:07.194Z,64.60
2019-03-09T15:09:35.965Z,64.40
2019-03-09T15:12:04.720Z,64.60
2019-03-09T15:14:33.517Z,64.70
2019-03-09T15:17:02.275Z,64.70
2019-03-09T15:19:31.034Z,64.60
2019-03-09T15:21:59.854Z,64.50
2019-03-09T15:24:28.579Z,64.40
2019-03-09T15:26:57.352Z,64.40
2019-03-09T15:29:26.176Z,63.90
2019-03-09T15:31:55.003Z,64.10
2019-03-09T15:34:23.839Z,64.30
2019-03-09T15:36:52.687Z,64.30
2019-03-09T15:39:21.515Z,64.40
2019-03-09T15:41:50.355Z,63.90
2019-03-09T15:44:19.240Z,64.10
2019-03-09T15:46:48.202Z,63.80
2019-03-09T15:49:17.028Z,64.10
2019-03-09T15:51:45.830Z,63.80
2019-03-09T15:54:14.598Z,63.30
2019-03-09T15:56:43.348Z,63.30
2019-03-09T15:59:12.111Z,63.30
2019-03-09T16:01:40.915Z,64.10
2019-03-09T16:04:09.728Z,64.60
2019-03-09T16:06:38.624Z,66.00
2019-03-09T16:09:07.975Z,68.20
2019-03-09T16:11:44.731Z,70.10
2019-03-09T16:14:07.264Z,71.00
2019-03-09T16:16:55.375Z,70.60
2019-03-09T16:19:24.215Z,69.80
2019-03-09T16:21:52.957Z,69.10
2019-03-09T16:24:21.706Z,69.80
2019-03-09T16:26:50.531Z,70.80
2019-03-09T16:29:19.338Z,69.60
2019-03-09T16:31:48.169Z,68.90
2019-03-09T16:34:16.999Z,68.70
2019-03-09T16:36:45.775Z,68.80
2019-03-09T16:39:14.544Z,68.90
2019-03-09T16:41:43.274Z,68.30
2019-03-09T16:44:12.192Z,68.80
2019-03-09T16:46:40.949Z,69.80
2019-03-09T16:49:09.734Z,68.80
2019-03-09T16:51:38.487Z,69.10
2019-03-09T16:54:07.227Z,70.10
2019-03-09T16:56:36.003Z,68.30
2019-03-09T16:59:04.793Z,68.40
2019-03-09T17:01:33.539Z,68.00
2019-03-09T17:04:02.353Z,68.90
2019-03-09T17:06:31.099Z,68.40
2019-03-09T17:08:59.914Z,67.90
2019-03-09T17:11:28.734Z,68.00
2019-03-09T17:13:57.563Z,67.90
2019-03-09T17:16:26.302Z,68.40
2019-03-09T17:18:55.252Z,67.60
2019-03-09T17:21:25.389Z,67.30
2019-03-09T17:23:54.198Z,67.40
2019-03-09T17:26:23.021Z,67.90
2019-03-09T17:28:51.846Z,67.50
2019-03-09T17:31:20.567Z,67.40
2019-03-09T17:33:49.391Z,66.70
2019-03-09T17:36:18.131Z,66.70
2019-03-09T17:38:46.890Z,66.80
2019-03-09T17:41:15.710Z,66.50
2019-03-09T17:43:44.663Z,66.20
2019-03-09T17:46:13.411Z,66.20
2019-03-09T17:48:42.243Z,66.00
2019-03-09T17:51:11.013Z,66.50
2019-03-09T17:53:39.771Z,66.30
2019-03-09T17:56:08.510Z,66.40
2019-03-09T17:58:37.266Z,66.90
2019-03-09T18:01:06.006Z,66.80
2019-03-09T18:03:34.758Z,67.20
2019-03-09T18:06:03.594Z,67.20
2019-03-09T18:08:32.478Z,67.70
2019-03-09T18:11:03.567Z,67.70
2019-03-09T18:13:32.384Z,67.80
2019-03-09T18:16:01.224Z,68.10
2019-03-09T18:18:30.055Z,68.30
2019-03-09T18:20:58.928Z,68.60
2019-03-09T18:23:27.736Z,68.80
2019-03-09T18:25:56.534Z,69.00
2019-03-09T18:28:25.389Z,69.20
2019-03-09T18:30:54.194Z,69.20
2019-03-09T18:33:22.927Z,69.20
2019-03-09T18:35:51.751Z,69.20
2019-03-09T18:38:20.479Z,69.10
2019-03-09T18:40:49.899Z,68.90
2019-03-09T18:43:18.747Z,69.10
2019-03-09T18:45:47.615Z,68.80
2019-03-09T18:48:16.397Z,68.70
2019-03-09T18:50:45.207Z,68.80
2019-03-09T18:53:13.965Z,68.70
2019-03-09T18:55:42.795Z,68.70
2019-03-09T18:58:11.530Z,68.30
2019-03-09T19:00:40.352Z,68.40
2019-03-09T19:03:09.066Z,68.60
2019-03-09T19:05:37.818Z,68.80
2019-03-09T19:08:06.557Z,68.40
2019-03-09T19:10:35.412Z,68.20
2019-03-09T19:13:04.143Z,68.20
2019-03-09T19:15:32.866Z,68.40
2019-03-09T19:18:01.619Z,68.20
2019-03-09T19:20:30.387Z,68.00
2019-03-09T19:22:59.219Z,68.00
2019-03-09T19:25:28.024Z,67.40
2019-03-09T19:27:56.793Z,67.40
2019-03-09T19:30:25.515Z,67.40
2019-03-09T19:33:00.263Z,67.00
2019-03-09T19:35:24.830Z,66.50
2019-03-09T19:37:53.644Z,66.10
2019-03-09T19:40:22.519Z,65.80
2019-03-09T19:42:51.334Z,65.60
2019-03-09T19:45:20.186Z,65.40
2019-03-09T19:47:48.938Z,65.50
2019-03-09T19:50:18.256Z,65.30
2019-03-09T19:52:47.053Z,66.20
2019-03-09T19:55:15.895Z,66.30
2019-03-09T19:57:44.725Z,66.90
2019-03-09T20:00:14.169Z,65.20
2019-03-09T20:02:42.937Z,66.20
2019-03-09T20:05:11.734Z,65.30
2019-03-09T20:07:40.465Z,65.40
2019-03-09T20:10:10.690Z,65.20
2019-03-09T20:12:39.489Z,64.90
2019-03-09T20:15:09.383Z,65.10
2019-03-09T20:17:38.118Z,62.70
2019-03-09T20:20:07.659Z,61.90
2019-03-09T20:22:36.407Z,62.20
2019-03-09T20:25:05.331Z,62.40
2019-03-09T20:27:34.160Z,62.60
2019-03-09T20:30:02.918Z,61.60
2019-03-09T20:32:31.699Z,60.90
2019-03-09T20:35:00.460Z,59.70
2019-03-09T20:37:29.228Z,59.30
2019-03-09T20:39:57.953Z,59.30
2019-03-09T20:42:26.799Z,59.40
2019-03-09T20:44:55.612Z,59.60
2019-03-09T20:47:24.426Z,59.50
2019-03-09T20:49:53.269Z,59.80
2019-03-09T20:52:22.007Z,59.40
2019-03-09T20:54:50.753Z,59.10
2019-03-09T20:57:19.479Z,59.50
2019-03-09T20:59:48.219Z,59.50
2019-03-09T21:02:17.303Z,59.70
2019-03-09T21:04:46.098Z,60.10
2019-03-09T21:07:14.935Z,60.20
2019-03-09T21:09:43.786Z,60.70
2019-03-09T21:12:12.591Z,59.60
2019-03-09T21:14:41.407Z,59.60
2019-03-09T21:17:10.231Z,59.70
2019-03-09T21:19:39.064Z,59.80
2019-03-09T21:22:07.899Z,60.10
2019-03-09T21:24:36.710Z,60.30
2019-03-09T21:27:05.530Z,60.60
2019-03-09T21:29:34.280Z,60.70
2019-03-09T21:32:03.019Z,60.00
2019-03-09T21:34:31.761Z,60.40
2019-03-09T21:37:00.489Z,61.20
2019-03-09T21:39:29.224Z,60.10
2019-03-09T21:41:57.965Z,60.60
2019-03-09T21:44:26.698Z,61.50
2019-03-09T21:46:55.432Z,62.00
2019-03-09T21:49:24.283Z,62.10
2019-03-09T21:51:53.078Z,62.40
2019-03-09T21:54:21.834Z,62.70
2019-03-09T21:56:50.565Z,63.00
2019-03-09T21:59:19.378Z,63.30
2019-03-09T22:01:48.115Z,63.50
2019-03-09T22:04:16.845Z,63.60
2019-03-09T22:06:45.575Z,63.80
2019-03-09T22:09:14.399Z,64.10
2019-03-09T22:11:43.191Z,64.40
2019-03-09T22:14:11.933Z,64.60
2019-03-09T22:16:40.679Z,64.80
2019-03-09T22:19:09.413Z,65.20
2019-03-09T22:21:38.161Z,66.10
2019-03-09T22:24:06.934Z,65.60
2019-03-09T22:26:35.666Z,65.80
2019-03-09T22:29:04.494Z,65.80
2019-03-09T22:31:33.298Z,66.00
2019-03-09T22:34:02.088Z,66.00
2019-03-09T22:36:30.910Z,66.20
2019-03-09T22:38:59.708Z,66.30
2019-03-09T22:41:28.490Z,66.30
2019-03-09T22:43:57.238Z,66.50
2019-03-09T22:46:25.979Z,66.20
2019-03-09T22:48:54.807Z,66.10
2019-03-09T22:51:23.773Z,66.00
2019-03-09T22:53:52.594Z,65.80
2019-03-09T22:56:21.397Z,65.30
2019-03-09T22:58:50.133Z,65.30
2019-03-09T23:01:19.078Z,65.50
2019-03-09T23:03:47.813Z,65.70
2019-03-09T23:06:16.550Z,65.60
2019-03-09T23:08:45.337Z,65.70
2019-03-09T23:16:39.082Z,65.70
2019-03-09T23:19:07.815Z,65.70
2019-03-09T23:21:36.572Z,65.90
2019-03-09T23:24:05.303Z,66.10
2019-03-09T23:26:34.125Z,66.50
2019-03-09T23:29:03.349Z,66.70
2019-03-09T23:31:33.219Z,66.90
2019-03-09T23:34:02.666Z,66.50
2019-03-09T23:36:31.958Z,67.20
2019-03-09T23:39:00.697Z,67.40
2019-03-09T23:41:29.504Z,67.50
2019-03-09T23:43:58.326Z,67.60
2019-03-09T23:46:27.189Z,67.40
2019-03-09T23:48:55.951Z,67.40
2019-03-09T23:51:24.743Z,67.40
2019-03-09T23:53:53.547Z,67.60
2019-03-09T23:56:22.271Z,67.60
2019-03-09T23:58:51.087Z,67.70
